createdAt,value
2023-01-08T00:00:00.626Z,100072.28
2023-01-08T00:02:29.267Z,100067.00
2023-01-08T00:04:56.602Z,100073.09
2023-01-08T00:07:23.916Z,100064.81
2023-01-08T00:09:52.214Z,100052.31
2023-01-08T00:12:19.677Z,100051.44
2023-01-08T00:14:47.035Z,100034.69
2023-01-08T00:17:14.367Z,100038.91
2023-01-08T00:19:43.209Z,100043.16
2023-01-08T00:22:11.152Z,100044.63
2023-01-08T00:24:38.534Z,100038.84
2023-01-08T00:27:05.999Z,100040.88
2023-01-08T00:29:33.447Z,100040.22
2023-01-08T00:32:00.891Z,100024.97
2023-01-08T00:34:28.287Z,100022.22
2023-01-08T00:36:57.063Z,100018.53
2023-01-08T00:39:24.650Z,100030.16
2023-01-08T00:41:52.095Z,100032.38
2023-01-08T00:44:19.577Z,100026.94
2023-01-08T00:46:47.024Z,100019.06
2023-01-08T00:49:14.420Z,100010.94
2023-01-08T00:51:41.830Z,100015.56
2023-01-08T00:54:11.851Z,100012.66
2023-01-08T00:56:39.391Z,100003.72
2023-01-08T00:59:06.913Z,99996.75
2023-01-08T01:01:34.583Z,99996.25
2023-01-08T01:04:02.133Z,99994.97
2023-01-08T01:06:29.949Z,99991.00
2023-01-08T01:08:57.866Z,99991.06
2023-01-08T01:11:28.426Z,99994.53
2023-01-08T01:13:56.753Z,100005.69
2023-01-08T01:16:24.624Z,100001.63
2023-01-08T01:18:52.430Z,99999.72
2023-01-08T01:21:23.745Z,100013.28
2023-01-08T01:23:51.475Z,100013.94
2023-01-08T01:26:20.762Z,100004.28
2023-01-08T01:28:51.111Z,100002.25
2023-01-08T01:31:19.492Z,99996.56
2023-01-08T01:33:47.693Z,100004.44
2023-01-08T01:36:16.595Z,99994.28
2023-01-08T01:38:44.699Z,99993.28
2023-01-08T01:41:20.044Z,100001.75
2023-01-08T01:43:48.970Z,100006.44
2023-01-08T01:46:36.731Z,100004.44
2023-01-08T01:49:08.214Z,99998.91
2023-01-08T01:51:37.515Z,99987.69
2023-01-08T01:54:06.733Z,99998.91
2023-01-08T01:56:34.581Z,100005.81
2023-01-08T01:59:03.685Z,99987.19
2023-01-08T02:04:24.044Z,99986.56
2023-01-08T02:06:57.715Z,99977.72
2023-01-08T02:09:33.996Z,99979.34
2023-01-08T02:12:17.390Z,99976.50
2023-01-08T02:14:51.042Z,99979.41
2023-01-08T02:17:22.380Z,99974.94
2023-01-08T02:19:52.494Z,99970.69
2023-01-08T02:22:26.695Z,99979.06
2023-01-08T02:24:57.468Z,99988.06
2023-01-08T02:27:29.098Z,99987.38
2023-01-08T02:29:57.115Z,99980.53
2023-01-08T02:32:28.131Z,99976.72
2023-01-08T02:34:55.727Z,99968.28
2023-01-08T02:37:23.118Z,99958.66
2023-01-08T02:40:03.944Z,99951.19
2023-01-08T02:42:37.901Z,99945.25
2023-01-08T02:45:08.817Z,99944.00
2023-01-08T02:47:39.199Z,99938.03
2023-01-08T02:50:15.600Z,99940.25
2023-01-08T02:52:48.855Z,99942.59
2023-01-08T02:55:16.919Z,99935.13
2023-01-08T02:57:46.305Z,99936.84
2023-01-08T03:00:14.707Z,99933.38
2023-01-08T03:02:42.462Z,99920.13
2023-01-08T03:05:15.314Z,99933.16
2023-01-08T03:07:42.662Z,99943.47
2023-01-08T03:10:11.037Z,99944.00
2023-01-08T03:12:52.627Z,99948.59
2023-01-08T03:15:24.237Z,99948.28
2023-01-08T03:17:53.721Z,99942.34
2023-01-08T03:20:23.112Z,99948.81
2023-01-08T03:22:52.846Z,99948.34
2023-01-08T03:25:22.096Z,99946.38
2023-01-08T03:27:55.247Z,99933.56
2023-01-08T03:30:23.019Z,99934.06
2023-01-08T03:32:52.334Z,99940.47
2023-01-08T03:35:22.213Z,99933.88
2023-01-08T03:37:52.908Z,99931.38
2023-01-08T03:40:23.000Z,99941.09
2023-01-08T03:42:51.965Z,99934.06
2023-01-08T03:45:20.011Z,99933.63
2023-01-08T03:47:48.447Z,99934.72
2023-01-08T03:50:21.005Z,99934.94
2023-01-08T03:52:48.491Z,99926.31
2023-01-08T03:55:16.194Z,99923.94
2023-01-08T03:57:43.685Z,99929.88
2023-01-08T04:00:14.009Z,99938.22
2023-01-08T04:02:42.051Z,99931.75
2023-01-08T04:05:09.786Z,99935.50
2023-01-08T04:07:37.276Z,99933.34
2023-01-08T04:10:05.250Z,99936.84
2023-01-08T04:12:32.842Z,99941.16
2023-01-08T04:15:00.355Z,99939.00
2023-01-08T04:17:29.188Z,99928.56
2023-01-08T04:19:56.585Z,99937.47
2023-01-08T04:22:24.017Z,99921.84
2023-01-08T04:24:51.417Z,99925.31
2023-01-08T04:27:18.807Z,99915.84
2023-01-08T04:29:46.258Z,99916.59
2023-01-08T04:32:13.678Z,99916.84
2023-01-08T04:34:42.531Z,99900.50
2023-01-08T04:37:10.024Z,99897.34
2023-01-08T04:39:37.383Z,99897.34
2023-01-08T04:42:04.822Z,99897.41
2023-01-08T04:44:32.259Z,99882.88
2023-01-08T04:46:59.678Z,99878.31
2023-01-08T04:49:27.013Z,99881.63
2023-01-08T04:51:55.789Z,99866.03
2023-01-08T04:54:23.153Z,99872.22
2023-01-08T04:56:51.327Z,99873.31
2023-01-08T04:59:18.755Z,99870.84
2023-01-08T05:01:46.269Z,99873.75
2023-01-08T05:04:13.756Z,99877.03
2023-01-08T05:06:41.228Z,99870.66
2023-01-08T05:09:11.708Z,99871.91
2023-01-08T05:11:39.466Z,99863.09
2023-01-08T05:14:06.985Z,99861.97
2023-01-08T05:16:34.452Z,99871.03
2023-01-08T05:19:02.095Z,99871.59
2023-01-08T05:21:29.587Z,99861.13
2023-01-08T05:23:57.073Z,99856.28
2023-01-08T05:26:25.930Z,99850.41
2023-01-08T05:29:21.268Z,99856.66
2023-01-08T05:31:48.790Z,99850.13
2023-01-08T05:34:16.395Z,99856.91
2023-01-08T05:36:44.399Z,99848.63
2023-01-08T05:39:12.164Z,99854.19
2023-01-08T05:41:41.525Z,99851.31
2023-01-08T05:44:09.087Z,99858.81
2023-01-08T05:46:36.762Z,99849.88
2023-01-08T05:49:06.865Z,99843.41
2023-01-08T05:51:34.397Z,99850.19
2023-01-08T05:54:03.103Z,99839.75
2023-01-08T05:56:30.645Z,99848.03
2023-01-08T05:58:59.561Z,99845.34
2023-01-08T06:01:27.061Z,99848.09
2023-01-08T06:03:56.569Z,99843.56
2023-01-08T06:06:24.196Z,99836.53
2023-01-08T06:08:51.673Z,99840.34
2023-01-08T06:11:19.141Z,99842.91
2023-01-08T06:13:46.504Z,99843.50
2023-01-08T06:16:17.393Z,99837.06
2023-01-08T06:18:44.832Z,99835.03
2023-01-08T06:21:13.260Z,99837.41
2023-01-08T06:23:40.735Z,99830.97
2023-01-08T06:26:08.174Z,99831.94
2023-01-08T06:28:36.607Z,99832.19
2023-01-08T06:31:04.702Z,99830.34
2023-01-08T06:33:33.941Z,99832.34
2023-01-08T06:36:02.551Z,99837.69
2023-01-08T06:38:32.038Z,99830.84
2023-01-08T06:40:59.463Z,99835.78
2023-01-08T06:43:27.000Z,99834.28
2023-01-08T06:45:55.379Z,99835.84
2023-01-08T06:48:22.792Z,99832.78
2023-01-08T06:50:51.765Z,99835.91
2023-01-08T06:53:19.409Z,99832.09
2023-01-08T06:55:46.913Z,99825.84
2023-01-08T06:58:14.523Z,99834.44
2023-01-08T07:00:42.647Z,99824.25
2023-01-08T07:03:12.305Z,99822.63
2023-01-08T07:05:39.858Z,99828.19
2023-01-08T07:08:11.539Z,99823.34
2023-01-08T07:10:38.983Z,99827.03
2023-01-08T07:13:08.027Z,99825.03
2023-01-08T07:15:37.177Z,99828.78
2023-01-08T07:18:08.239Z,99832.00
2023-01-08T07:20:53.000Z,99830.63
2023-01-08T07:23:22.114Z,99822.03
2023-01-08T07:25:49.891Z,99830.59
2023-01-08T07:28:28.077Z,99821.78
2023-01-08T07:30:56.479Z,99821.78
2023-01-08T07:33:24.185Z,99821.22
2023-01-08T07:35:54.667Z,99815.09
2023-01-08T07:38:23.755Z,99818.06
2023-01-08T07:40:51.184Z,99813.44
2023-01-08T07:43:18.956Z,99820.16
2023-01-08T07:45:46.623Z,99812.06
2023-01-08T07:48:15.784Z,99805.59
2023-01-08T07:50:44.039Z,99814.19
2023-01-08T07:53:12.641Z,99816.56
2023-01-08T07:55:41.488Z,99814.75
2023-01-08T07:58:10.185Z,99809.63
2023-01-08T08:00:38.373Z,99805.88
2023-01-08T08:03:06.959Z,99797.31
2023-01-08T08:05:35.400Z,99807.59
2023-01-08T08:08:03.359Z,99804.47
2023-01-08T08:10:31.273Z,99804.84
2023-01-08T08:13:00.462Z,99801.56
2023-01-08T08:15:28.102Z,99812.03
2023-01-08T08:17:55.694Z,99815.78
2023-01-08T08:20:23.355Z,99806.72
2023-01-08T08:22:51.348Z,99822.22
2023-01-08T08:25:19.087Z,99809.34
2023-01-08T08:27:47.045Z,99816.03
2023-01-08T08:30:17.067Z,99817.44
2023-01-08T08:32:44.665Z,99820.59
2023-01-08T08:35:12.225Z,99822.78
2023-01-08T08:37:40.020Z,99812.06
2023-01-08T08:40:08.918Z,99821.38
2023-01-08T08:42:36.275Z,99816.25
2023-01-08T08:45:03.826Z,99808.22
2023-01-08T08:47:32.862Z,99808.78
2023-01-08T08:50:03.531Z,99800.69
2023-01-08T08:52:31.175Z,99801.06
2023-01-08T08:54:58.526Z,99800.72
2023-01-08T08:57:26.247Z,99804.47
2023-01-08T08:59:53.661Z,99799.94
2023-01-08T09:02:21.187Z,99800.13
2023-01-08T09:04:49.943Z,99794.81
2023-01-08T09:07:17.785Z,99798.06
2023-01-08T09:09:45.232Z,99791.44
2023-01-08T09:12:12.782Z,99793.56
2023-01-08T09:14:40.225Z,99797.56
2023-01-08T09:17:07.617Z,99811.78
2023-01-08T09:19:35.151Z,99804.56
2023-01-08T09:22:04.715Z,99806.13
2023-01-08T09:24:33.255Z,99804.03
2023-01-08T09:27:00.639Z,99810.47
2023-01-08T09:29:28.068Z,99804.06
2023-01-08T09:31:55.849Z,99805.19
2023-01-08T09:34:23.392Z,99798.50
2023-01-08T09:36:50.807Z,99803.25
2023-01-08T09:39:19.667Z,99799.78
2023-01-08T09:41:48.160Z,99792.28
2023-01-08T09:44:17.019Z,99794.97
2023-01-08T09:46:45.418Z,99786.47
2023-01-08T09:49:16.177Z,99774.63
2023-01-08T09:51:43.923Z,99783.25
2023-01-08T09:54:15.896Z,99780.34
2023-01-08T09:56:45.084Z,99789.16
2023-01-08T09:59:14.466Z,99776.03
2023-01-08T10:01:44.528Z,99787.66
2023-01-08T10:04:15.670Z,99788.34
2023-01-08T10:06:48.034Z,99781.50
2023-01-08T10:09:15.890Z,99784.44
2023-01-08T10:11:47.503Z,99789.59
2023-01-08T10:14:21.505Z,99784.47
2023-01-08T10:16:52.280Z,99772.66
2023-01-08T10:19:19.644Z,99782.63
2023-01-08T10:21:47.185Z,99770.56
2023-01-08T10:24:14.536Z,99778.88
2023-01-08T10:26:42.118Z,99776.44
2023-01-08T10:29:13.834Z,99776.19
2023-01-08T10:31:49.502Z,99772.19
2023-01-08T10:34:26.164Z,99770.88
2023-01-08T10:36:54.429Z,99765.47
2023-01-08T10:39:24.357Z,99760.88
2023-01-08T10:41:53.694Z,99756.34
2023-01-08T10:44:23.768Z,99754.28
2023-01-08T10:46:54.862Z,99744.91
2023-01-08T10:49:27.773Z,99746.25
2023-01-08T10:51:55.690Z,99751.59
2023-01-08T10:54:32.409Z,99746.00
2023-01-08T10:57:02.372Z,99739.56
2023-01-08T10:59:32.009Z,99735.28
2023-01-08T11:01:59.747Z,99740.66
2023-01-08T11:04:32.314Z,99732.63
2023-01-08T11:07:03.130Z,99732.91
2023-01-08T11:09:32.994Z,99723.78
2023-01-08T11:12:00.825Z,99716.00
2023-01-08T11:14:32.039Z,99717.88
2023-01-08T11:17:00.118Z,99713.59
2023-01-08T11:19:29.169Z,99721.34
2023-01-08T11:21:59.412Z,99724.88
2023-01-08T11:24:29.017Z,99723.28
2023-01-08T11:27:00.908Z,99722.47
2023-01-08T11:29:37.234Z,99722.50
2023-01-08T11:32:25.277Z,99712.03
2023-01-08T11:34:55.897Z,99702.09
2023-01-08T11:37:25.595Z,99707.50
2023-01-08T11:39:53.545Z,99698.13
2023-01-08T11:42:40.222Z,99693.28
2023-01-08T11:45:25.408Z,99683.94
2023-01-08T11:48:05.652Z,99682.59
2023-01-08T11:50:36.886Z,99686.94
2023-01-08T11:53:14.464Z,99689.31
2023-01-08T11:55:52.361Z,99703.81
2023-01-08T11:58:24.399Z,99695.25
2023-01-08T12:00:59.963Z,99684.19
2023-01-08T12:03:31.919Z,99681.56
2023-01-08T12:06:06.435Z,99675.91
2023-01-08T12:08:38.590Z,99673.81
2023-01-08T12:11:12.937Z,99676.50
2023-01-08T12:13:51.872Z,99676.50
2023-01-08T12:16:40.386Z,99667.63
2023-01-08T12:19:23.263Z,99664.94
2023-01-08T12:22:06.257Z,99666.78
2023-01-08T12:24:48.979Z,99658.19
2023-01-08T12:27:48.334Z,99652.31
2023-01-08T12:30:19.478Z,99653.41
2023-01-08T12:32:50.270Z,99647.22
2023-01-08T12:35:20.962Z,99636.22
2023-01-08T12:37:52.818Z,99629.75
2023-01-08T12:40:23.534Z,99638.63
2023-01-08T12:43:00.474Z,99628.69
2023-01-08T12:45:30.575Z,99633.28
2023-01-08T12:48:01.976Z,99633.84
2023-01-08T12:50:40.446Z,99636.78
2023-01-08T12:53:12.463Z,99631.94
2023-01-08T12:55:45.070Z,99621.72
2023-01-08T12:58:21.366Z,99620.16
2023-01-08T13:00:53.444Z,99622.00
2023-01-08T13:03:24.371Z,99621.22
2023-01-08T13:05:51.910Z,99621.50
2023-01-08T13:08:34.163Z,99615.03
2023-01-08T13:11:01.948Z,99608.84
2023-01-08T13:13:31.043Z,99612.09
2023-01-08T13:16:09.708Z,99607.25
2023-01-08T13:18:38.762Z,99600.81
2023-01-08T13:21:06.967Z,99595.44
2023-01-08T13:23:36.024Z,99605.38
2023-01-08T13:26:05.285Z,99599.75
2023-01-08T13:28:43.477Z,99601.88
2023-01-08T13:31:27.062Z,99599.75
2023-01-08T13:33:56.174Z,99591.72
2023-01-08T13:36:25.649Z,99587.13
2023-01-08T13:39:04.960Z,99586.88
2023-01-08T13:41:33.892Z,99585.78
2023-01-08T13:44:04.310Z,99579.63
2023-01-08T13:46:33.333Z,99585.00
2023-01-08T13:49:23.311Z,99574.75
2023-01-08T13:51:50.907Z,99576.94
2023-01-08T13:54:21.834Z,99571.25
2023-01-08T13:56:54.253Z,99567.53
2023-01-08T13:59:41.078Z,99565.38
2023-01-08T14:02:50.662Z,99567.28
2023-01-08T14:05:27.044Z,99562.44
2023-01-08T14:07:54.592Z,99554.38
2023-01-08T14:10:22.828Z,99563.22
2023-01-08T14:12:51.471Z,99565.38
2023-01-08T14:15:23.697Z,99566.44
2023-01-08T14:17:51.843Z,99571.25
2023-01-08T14:20:30.336Z,99565.91
2023-01-08T14:22:57.913Z,99566.97
2023-01-08T14:25:25.533Z,99575.59
2023-01-08T14:28:29.371Z,99566.44
2023-01-08T14:30:58.262Z,99571.56
2023-01-08T14:33:28.693Z,99561.84
2023-01-08T14:35:57.841Z,99565.34
2023-01-08T14:38:25.527Z,99572.34
2023-01-08T14:40:59.803Z,99566.97
2023-01-08T14:43:27.918Z,99571.81
2023-01-08T14:45:56.919Z,99569.91
2023-01-08T14:48:26.517Z,99569.38
2023-01-08T14:51:05.943Z,99562.13
2023-01-08T14:53:36.586Z,99559.47
2023-01-08T14:56:06.081Z,99554.09
2023-01-08T14:58:37.727Z,99542.28
2023-01-08T15:01:22.982Z,99550.59
2023-01-08T15:03:52.263Z,99551.44
2023-01-08T15:06:28.500Z,99557.56
2023-01-08T15:08:56.594Z,99559.38
2023-01-08T15:11:30.880Z,99550.56
2023-01-08T15:13:58.754Z,99547.59
2023-01-08T15:16:30.042Z,99546.25
2023-01-08T15:19:03.210Z,99547.00
2023-01-08T15:21:32.404Z,99553.47
2023-01-08T15:24:01.333Z,99545.41
2023-01-08T15:26:29.192Z,99551.28
2023-01-08T15:29:02.783Z,99540.84
2023-01-08T15:31:32.675Z,99536.00
2023-01-08T15:34:01.143Z,99545.16
2023-01-08T15:36:28.774Z,99540.03
2023-01-08T15:38:57.530Z,99540.56
2023-01-08T15:41:52.184Z,99533.03
2023-01-08T15:44:19.745Z,99543.19
2023-01-08T15:46:47.307Z,99534.09
2023-01-08T15:49:14.890Z,99538.94
2023-01-08T15:51:44.375Z,99533.84
2023-01-08T15:54:14.528Z,99528.47
2023-01-08T15:56:42.493Z,99535.47
2023-01-08T15:59:10.070Z,99535.75
2023-01-08T16:01:37.537Z,99533.31
2023-01-08T16:04:05.233Z,99523.66
2023-01-08T16:06:32.677Z,99524.75
2023-01-08T16:09:03.583Z,99525.50
2023-01-08T16:11:32.343Z,99523.59
2023-01-08T16:13:59.924Z,99516.88
2023-01-08T16:16:27.400Z,99512.56
2023-01-08T16:18:54.906Z,99523.38
2023-01-08T16:21:22.499Z,99515.59
2023-01-08T16:23:50.261Z,99508.28
2023-01-08T16:26:17.814Z,99507.50
2023-01-08T16:28:46.956Z,99501.31
2023-01-08T16:31:14.486Z,99500.25
2023-01-08T16:33:41.898Z,99494.09
2023-01-08T16:36:10.706Z,99494.78
2023-01-08T16:38:38.131Z,99493.19
2023-01-08T16:41:06.042Z,99492.94
2023-01-08T16:43:39.801Z,99483.06
2023-01-08T16:46:13.614Z,99485.41
2023-01-08T16:48:42.557Z,99487.00
2023-01-08T16:51:10.063Z,99488.16
2023-01-08T16:53:37.845Z,99480.69
2023-01-08T16:56:05.896Z,99475.63
2023-01-08T16:58:34.929Z,99475.38
2023-01-08T17:01:04.292Z,99471.59
2023-01-08T17:03:33.534Z,99478.28
2023-01-08T17:06:06.470Z,99479.59
2023-01-08T17:08:34.277Z,99466.19
2023-01-08T17:11:03.227Z,99474.00
2023-01-08T17:13:30.756Z,99474.50
2023-01-08T17:15:59.887Z,99465.56
2023-01-08T17:18:27.487Z,99471.00
2023-01-08T17:20:56.897Z,99462.31
2023-01-08T17:23:27.275Z,99460.16
2023-01-08T17:25:54.739Z,99460.97
2023-01-08T17:28:24.887Z,99457.69
2023-01-08T17:30:52.610Z,99462.22
2023-01-08T17:33:20.097Z,99462.50
2023-01-08T17:35:48.131Z,99455.50
2023-01-08T17:38:17.067Z,99459.22
2023-01-08T17:40:44.579Z,99458.69
2023-01-08T17:43:12.125Z,99460.59
2023-01-08T17:45:40.142Z,99464.59
2023-01-08T17:48:07.882Z,99468.97
2023-01-08T17:50:35.465Z,99460.59
2023-01-08T17:53:03.243Z,99461.66
2023-01-08T17:55:32.049Z,99458.97
2023-01-08T17:57:59.414Z,99473.75
2023-01-08T18:00:27.070Z,99474.09
2023-01-08T18:02:55.010Z,99494.50
2023-01-08T18:05:22.698Z,99507.38
2023-01-08T18:07:50.285Z,99497.72
2023-01-08T18:10:18.099Z,99496.09
2023-01-08T18:12:46.962Z,99499.53
2023-01-08T18:15:16.670Z,99503.25
2023-01-08T18:17:44.265Z,99492.38
2023-01-08T18:20:12.535Z,99507.22
2023-01-08T18:22:40.292Z,99500.75
2023-01-08T18:25:08.846Z,99488.16
2023-01-08T18:27:36.434Z,99485.13
2023-01-08T18:30:06.873Z,99478.22
2023-01-08T18:32:35.874Z,99464.59
2023-01-08T18:35:07.317Z,99469.84
2023-01-08T18:37:35.058Z,99465.78
2023-01-08T18:40:02.827Z,99463.16
2023-01-08T18:42:32.665Z,99463.66
2023-01-08T18:45:00.503Z,99459.72
2023-01-08T18:47:29.644Z,99463.81
2023-01-08T18:49:59.085Z,99470.66
2023-01-08T18:52:26.835Z,99467.50
2023-01-08T18:54:54.256Z,99469.34
2023-01-08T18:57:21.978Z,99465.72
2023-01-08T18:59:50.859Z,99457.69
2023-01-08T19:02:21.367Z,99461.66
2023-01-08T19:04:50.941Z,99460.59
2023-01-08T19:07:19.016Z,99457.66
2023-01-08T19:09:46.515Z,99452.91
2023-01-08T19:12:14.048Z,99453.53
2023-01-08T19:14:41.776Z,99448.31
2023-01-08T19:17:09.369Z,99459.34
2023-01-08T19:19:38.316Z,99449.81
2023-01-08T19:22:08.927Z,99457.88
2023-01-08T19:24:37.232Z,99447.38
2023-01-08T19:27:04.858Z,99449.72
2023-01-08T19:29:32.238Z,99448.69
2023-01-08T19:31:59.632Z,99447.09
2023-01-08T19:34:27.279Z,99441.94
2023-01-08T19:36:55.280Z,99442.19
2023-01-08T19:39:29.724Z,99443.75
2023-01-08T19:42:15.068Z,99436.50
2023-01-08T19:44:43.017Z,99437.28
2023-01-08T19:47:12.369Z,99433.47
2023-01-08T19:49:42.889Z,99435.03
2023-01-08T19:52:10.865Z,99431.56
2023-01-08T19:54:39.874Z,99428.34
2023-01-08T19:57:07.574Z,99428.16
2023-01-08T19:59:35.117Z,99426.28
2023-01-08T20:02:05.168Z,99417.94
2023-01-08T20:04:34.746Z,99421.38
2023-01-08T20:07:05.369Z,99414.41
2023-01-08T20:09:34.348Z,99408.56
2023-01-08T20:12:05.178Z,99405.88
2023-01-08T20:14:34.144Z,99405.91
2023-01-08T20:17:01.894Z,99406.91
2023-01-08T20:19:30.638Z,99399.16
2023-01-08T20:21:59.661Z,99399.75
2023-01-08T20:24:27.320Z,99400.69
2023-01-08T20:26:55.161Z,99399.13
2023-01-08T20:32:09.551Z,99405.75
2023-01-08T20:34:38.637Z,99399.56
2023-01-08T20:37:08.389Z,99398.53
2023-01-08T20:39:36.099Z,99397.56
2023-01-08T20:42:07.228Z,99396.88
2023-01-08T20:44:36.945Z,99395.59
2023-01-08T20:47:06.152Z,99391.25
2023-01-08T20:49:34.409Z,99376.78
2023-01-08T20:52:03.211Z,99378.16
2023-01-08T20:54:31.496Z,99378.69
2023-01-08T20:57:00.477Z,99369.53
2023-01-08T20:59:28.532Z,99372.81
2023-01-08T21:01:57.812Z,99372.53
2023-01-08T21:04:27.442Z,99375.47
2023-01-08T21:06:55.996Z,99374.31
2023-01-08T21:09:23.701Z,99377.78
2023-01-08T21:11:52.257Z,99368.44
2023-01-08T21:14:19.996Z,99367.66
2023-01-08T21:16:48.101Z,99356.84
2023-01-08T21:19:18.234Z,99354.53
2023-01-08T21:21:46.228Z,99349.19
2023-01-08T21:24:15.058Z,99348.09
2023-01-08T21:26:42.994Z,99352.72
2023-01-08T21:29:11.871Z,99352.84
2023-01-08T21:31:40.280Z,99352.38
2023-01-08T21:34:11.398Z,99345.59
2023-01-08T21:36:41.536Z,99335.63
2023-01-08T21:39:09.312Z,99341.00
2023-01-08T21:41:54.545Z,99331.88
2023-01-08T21:44:41.192Z,99327.88
2023-01-08T21:47:10.959Z,99317.56
2023-01-08T21:49:38.512Z,99316.97
2023-01-08T21:52:25.469Z,99303.19
2023-01-08T21:54:53.819Z,99308.06
2023-01-08T21:57:21.469Z,99304.81
2023-01-08T21:59:50.351Z,99293.38
2023-01-08T22:02:19.482Z,99288.72
2023-01-08T22:04:47.236Z,99297.91
2023-01-08T22:07:16.634Z,99295.19
2023-01-08T22:09:47.474Z,99291.44
2023-01-08T22:12:16.184Z,99286.41
2023-01-08T22:14:43.563Z,99276.47
2023-01-08T22:17:10.988Z,99282.63
2023-01-08T22:19:39.257Z,99283.72
2023-01-08T22:22:10.133Z,99278.59
2023-01-08T22:24:39.398Z,99278.50
2023-01-08T22:27:07.780Z,99271.59
2023-01-08T22:29:35.993Z,99267.56
2023-01-08T22:32:03.854Z,99276.50
2023-01-08T22:34:31.593Z,99271.66
2023-01-08T22:36:58.978Z,99263.59
2023-01-08T22:39:26.529Z,99263.09
2023-01-08T22:41:55.434Z,99256.34
2023-01-08T22:44:22.964Z,99252.81
2023-01-08T22:46:50.348Z,99249.63
2023-01-08T22:49:17.875Z,99249.09
2023-01-08T22:51:45.343Z,99253.38
2023-01-08T22:54:13.896Z,99245.38
2023-01-08T22:56:41.666Z,99233.88
2023-01-08T22:59:10.589Z,99237.34
2023-01-08T23:01:38.182Z,99236.19
2023-01-08T23:04:06.015Z,99233.81
2023-01-08T23:06:35.003Z,99235.66
2023-01-08T23:09:02.397Z,99241.56
2023-01-08T23:11:29.857Z,99239.19
2023-01-08T23:13:57.246Z,99241.06
2023-01-08T23:16:26.247Z,99226.06
2023-01-08T23:18:53.940Z,99201.22
2023-01-08T23:21:23.446Z,99214.56
2023-01-08T23:23:51.011Z,99209.19
2023-01-08T23:26:21.321Z,99209.66
2023-01-08T23:28:49.799Z,99206.09
2023-01-08T23:31:19.667Z,99213.03
2023-01-08T23:33:48.698Z,99202.06
2023-01-08T23:36:18.419Z,99194.03
2023-01-08T23:38:46.561Z,99189.78
2023-01-08T23:41:15.790Z,99188.22
2023-01-08T23:43:43.320Z,99179.81
2023-01-08T23:46:10.773Z,99183.84
2023-01-08T23:48:39.280Z,99193.19
2023-01-08T23:51:08.305Z,99196.38
2023-01-08T23:53:36.219Z,99191.50
2023-01-08T23:56:03.807Z,99190.50
2023-01-08T23:58:31.488Z,99197.75
